Time;durP1;ratioP1;P1;durP2;ratioP2;P2;SDS_P1;SDS_P2;PMS_P1;PMS_P2;Temp;Humidity;BMP_temperature;BMP_pressure;BME280_temperature;BME280_humidity;BME280_pressure;Samples;Min_cycle;Max_cycle;Signal;HPM_P1;HPM_P2
2021/12/20 00:01:33;;;;;;;;;;;20.10;44.10;;;;;;6259794;28;19928;-38
2021/12/20 00:04:35;;;;;;;;;;;20.60;44.50;;;;;;6262995;28;20044;-38
2021/12/20 00:07:36;;;;;;;;;;;19.80;43.80;;;;;;6245223;28;19943;-38
2021/12/20 00:10:38;;;;;;;;;;;20.80;44.50;;;;;;6259054;28;19936;-40
2021/12/20 00:13:39;;;;;;;;;;;20.20;44.10;;;;;;6256624;28;20035;-39
2021/12/20 00:16:41;;;;;;;;;;;20.00;44.10;;;;;;6262651;28;20137;-38
2021/12/20 00:19:42;;;;;;;;;;;20.20;44.20;;;;;;6264038;28;20039;-38
2021/12/20 00:22:43;;;;;;;;;;;20.20;44.20;;;;;;6264490;28;20062;-38
2021/12/20 00:25:48;;;;;;;;;;;20.20;44.00;;;;;;6263898;28;19978;-39
2021/12/20 00:28:49;;;;;;;;;;;20.10;44.10;;;;;;6262239;28;19977;-39
2021/12/20 00:31:51;;;;;;;;;;;20.20;44.30;;;;;;6258442;28;19928;-38
2021/12/20 00:34:52;;;;;;;;;;;19.90;44.10;;;;;;6256340;28;19973;-39
2021/12/20 00:41:10;;;;;;;;;;;20.30;44.30;;;;;;6256085;28;20055;-39
2021/12/20 00:44:12;;;;;;;;;;;20.00;44.00;;;;;;6258745;28;19963;-39
2021/12/20 00:47:27;;;;;;;;;;;19.90;44.10;;;;;;6256759;28;19964;-39
2021/12/20 00:50:30;;;;;;;;;;;20.10;44.30;;;;;;6263312;28;19928;-39
2021/12/20 00:53:32;;;;;;;;;;;20.10;44.00;;;;;;6245745;28;19960;-38
2021/12/20 00:56:34;;;;;;;;;;;20.40;44.30;;;;;;6261842;28;20006;-38
2021/12/20 00:59:35;;;;;;;;;;;20.10;44.10;;;;;;6259308;28;19934;-38
2021/12/20 01:02:36;;;;;;;;;;;20.10;44.40;;;;;;6263861;28;19924;-38
2021/12/20 01:05:39;;;;;;;;;;;20.00;44.10;;;;;;6264235;28;20042;-38
2021/12/20 01:08:41;;;;;;;;;;;20.10;44.00;;;;;;6248633;28;20011;-38
2021/12/20 01:11:50;;;;;;;;;;;20.50;44.20;;;;;;6269808;28;19932;-38
2021/12/20 01:14:58;;;;;;;;;;;20.30;44.20;;;;;;6269025;28;20795;-39
2021/12/20 01:18:00;;;;;;;;;;;19.80;43.90;;;;;;6266793;28;20039;-39
2021/12/20 01:21:01;;;;;;;;;;;20.10;44.10;;;;;;6266561;28;19967;-38
2021/12/20 01:24:02;;;;;;;;;;;20.00;44.10;;;;;;6275146;28;19952;-38
2021/12/20 01:27:06;;;;;;;;;;;20.40;44.20;;;;;;6267560;28;20005;-38
2021/12/20 01:30:09;;;;;;;;;;;20.20;44.20;;;;;;6266889;28;21536;-39
2021/12/20 01:33:12;;;;;;;;;;;20.00;43.90;;;;;;6268275;28;19935;-38
2021/12/20 01:36:13;;;;;;;;;;;20.60;44.40;;;;;;6266585;28;20018;-38
2021/12/20 01:39:15;;;;;;;;;;;20.20;44.00;;;;;;6279850;28;19990;-39
2021/12/20 01:42:17;;;;;;;;;;;20.10;44.10;;;;;;6264052;28;20265;-38
2021/12/20 01:45:22;;;;;;;;;;;20.60;44.30;;;;;;6264636;28;19973;-39
2021/12/20 01:48:24;;;;;;;;;;;20.10;44.00;;;;;;6265094;28;19931;-39
2021/12/20 01:51:46;;;;;;;;;;;20.00;44.10;;;;;;6266827;28;19974;-38
2021/12/20 01:54:48;;;;;;;;;;;20.00;44.10;;;;;;6276335;28;20037;-38
2021/12/20 01:57:50;;;;;;;;;;;20.40;44.20;;;;;;6260283;28;20117;-38
2021/12/20 02:04:09;;;;;;;;;;;20.10;44.10;;;;;;6249526;28;20233;-38
2021/12/20 02:07:31;;;;;;;;;;;20.30;44.40;;;;;;6256316;28;19928;-38
2021/12/20 02:10:33;;;;;;;;;;;20.00;44.00;;;;;;6259492;28;20466;-38
2021/12/20 02:13:36;;;;;;;;;;;20.00;44.00;;;;;;6253494;28;20466;-38
2021/12/20 02:16:39;;;;;;;;;;;20.70;44.50;;;;;;6237408;28;19963;-39
2021/12/20 02:19:40;;;;;;;;;;;20.30;44.20;;;;;;6255546;28;20340;-39
2021/12/20 02:22:42;;;;;;;;;;;20.00;44.10;;;;;;6260500;28;20524;-39
2021/12/20 02:25:43;;;;;;;;;;;20.30;44.20;;;;;;6260930;28;19967;-38
2021/12/20 02:28:47;;;;;;;;;;;20.10;44.10;;;;;;6260094;28;20016;-38
2021/12/20 02:38:19;;;;;;;;;;;20.00;44.00;;;;;;6260261;28;19935;-38
2021/12/20 02:41:22;;;;;;;;;;;20.00;44.10;;;;;;6252297;28;19994;-39
2021/12/20 02:44:27;;;;;;;;;;;20.10;44.10;;;;;;6242767;28;20021;-38
2021/12/20 02:47:29;;;;;;;;;;;20.70;44.40;;;;;;6254831;28;20122;-38
2021/12/20 02:50:30;;;;;;;;;;;20.40;44.30;;;;;;6257616;28;19924;-38
2021/12/20 02:53:32;;;;;;;;;;;20.30;43.80;;;;;;6255882;28;20047;-38
2021/12/20 02:56:34;;;;;;;;;;;20.10;44.20;;;;;;6257345;28;19935;-39
2021/12/20 02:59:35;;;;;;;;;;;20.00;44.10;;;;;;6265829;28;20715;-38
2021/12/20 03:02:37;;;;;;;;;;;20.00;44.00;;;;;;6251332;28;19963;-38
2021/12/20 03:05:38;;;;;;;;;;;20.50;44.60;;;;;;6251576;28;19935;-38
2021/12/20 03:08:43;;;;;;;;;;;20.10;44.20;;;;;;6252187;28;19931;-38
2021/12/20 03:11:45;;;;;;;;;;;19.90;44.10;;;;;;6244002;28;19929;-39
2021/12/20 03:14:49;;;;;;;;;;;20.50;44.30;;;;;;6257143;28;20031;-38
2021/12/20 03:17:52;;;;;;;;;;;21.00;44.70;;;;;;6259049;28;19924;-38
2021/12/20 03:20:54;;;;;;;;;;;20.20;44.20;;;;;;6261078;28;19928;-38
2021/12/20 03:23:56;;;;;;;;;;;20.70;44.60;;;;;;6262905;28;19935;-38
2021/12/20 03:26:57;;;;;;;;;;;20.20;44.30;;;;;;6261010;28;20933;-39
2021/12/20 03:29:58;;;;;;;;;;;19.80;44.10;;;;;;6262186;28;20013;-38
2021/12/20 03:33:00;;;;;;;;;;;19.90;44.10;;;;;;6266855;28;19936;-38
2021/12/20 03:36:01;;;;;;;;;;;20.00;44.10;;;;;;6272183;28;20778;-38
2021/12/20 03:39:04;;;;;;;;;;;20.10;44.30;;;;;;6270079;28;19981;-38
2021/12/20 03:42:06;;;;;;;;;;;20.10;44.30;;;;;;6263058;28;19967;-38
2021/12/20 03:45:08;;;;;;;;;;;20.00;44.10;;;;;;6265282;28;19928;-38
2021/12/20 03:48:09;;;;;;;;;;;20.00;44.10;;;;;;6261303;28;20030;-38
2021/12/20 03:51:11;;;;;;;;;;;20.00;44.20;;;;;;6261874;28;20425;-38
2021/12/20 03:54:13;;;;;;;;;;;20.00;44.30;;;;;;6249533;28;20296;-38
2021/12/20 03:57:14;;;;;;;;;;;20.20;44.60;;;;;;6261234;28;20070;-38
2021/12/20 04:00:17;;;;;;;;;;;19.80;44.20;;;;;;6265841;28;19928;-38
2021/12/20 04:03:18;;;;;;;;;;;20.00;44.20;;;;;;6263349;28;20692;-38
2021/12/20 04:06:20;;;;;;;;;;;19.90;44.20;;;;;;6259961;28;19928;-38
2021/12/20 04:09:22;;;;;;;;;;;20.40;44.40;;;;;;6264431;28;19924;-38
2021/12/20 04:12:23;;;;;;;;;;;20.30;44.40;;;;;;6264131;28;20198;-38
2021/12/20 04:15:24;;;;;;;;;;;20.30;44.60;;;;;;6260331;28;19992;-38
2021/12/20 04:18:27;;;;;;;;;;;20.60;44.70;;;;;;6266067;28;20359;-38
2021/12/20 04:21:31;;;;;;;;;;;20.10;44.20;;;;;;6246685;28;20236;-38
2021/12/20 04:24:34;;;;;;;;;;;20.10;44.40;;;;;;6260710;28;19924;-38
2021/12/20 04:27:35;;;;;;;;;;;20.10;44.30;;;;;;6267264;28;20240;-39
2021/12/20 04:30:37;;;;;;;;;;;19.90;44.10;;;;;;6264265;28;20409;-38
2021/12/20 04:33:38;;;;;;;;;;;19.80;44.10;;;;;;6265856;28;19928;-39
2021/12/20 04:36:40;;;;;;;;;;;19.80;44.20;;;;;;6270062;28;20036;-38
2021/12/20 04:39:42;;;;;;;;;;;20.00;44.40;;;;;;6268775;28;20087;-38
2021/12/20 04:42:43;;;;;;;;;;;19.90;44.20;;;;;;6266313;28;20054;-38
2021/12/20 04:45:44;;;;;;;;;;;20.40;44.60;;;;;;6271726;28;20066;-38
2021/12/20 04:48:46;;;;;;;;;;;20.40;44.30;;;;;;6268120;28;20047;-39
2021/12/20 04:51:47;;;;;;;;;;;20.40;44.60;;;;;;6272736;28;19929;-38
2021/12/20 04:54:53;;;;;;;;;;;19.90;44.20;;;;;;6282480;28;19924;-38
2021/12/20 04:57:55;;;;;;;;;;;20.00;44.30;;;;;;6265142;28;19990;-39
2021/12/20 05:00:56;;;;;;;;;;;20.20;44.30;;;;;;6268973;28;20059;-38
2021/12/20 05:03:57;;;;;;;;;;;20.10;44.20;;;;;;6258076;28;20354;-39
2021/12/20 05:06:59;;;;;;;;;;;19.80;44.30;;;;;;6265244;28;19924;-39
2021/12/20 05:10:02;;;;;;;;;;;20.10;44.40;;;;;;6267993;28;19925;-38
2021/12/20 05:13:04;;;;;;;;;;;19.80;44.40;;;;;;6270741;28;20498;-38
2021/12/20 05:16:06;;;;;;;;;;;19.90;44.10;;;;;;6278539;28;19935;-38
2021/12/20 05:19:07;;;;;;;;;;;20.30;44.20;;;;;;6264116;28;19932;-38
2021/12/20 05:22:09;;;;;;;;;;;20.00;44.00;;;;;;6263819;28;19961;-38
2021/12/20 05:25:11;;;;;;;;;;;19.90;44.20;;;;;;6266677;28;20026;-39
2021/12/20 05:28:13;;;;;;;;;;;20.30;44.50;;;;;;6265432;28;20038;-39
2021/12/20 05:31:14;;;;;;;;;;;19.80;44.20;;;;;;6253871;28;20693;-39
2021/12/20 05:34:15;;;;;;;;;;;19.90;43.60;;;;;;6257975;28;19971;-40
2021/12/20 05:37:17;;;;;;;;;;;19.90;45.00;;;;;;6257461;28;20388;-38
2021/12/20 05:40:20;;;;;;;;;;;20.10;44.40;;;;;;6257059;28;20042;-38
2021/12/20 05:43:21;;;;;;;;;;;19.60;44.10;;;;;;6248365;28;19928;-38
2021/12/20 05:46:23;;;;;;;;;;;20.00;44.50;;;;;;6258986;28;19928;-39
2021/12/20 05:49:24;;;;;;;;;;;20.20;44.40;;;;;;6241518;28;19931;-39
2021/12/20 05:52:29;;;;;;;;;;;19.80;44.30;;;;;;6253725;28;19924;-38
2021/12/20 05:55:31;;;;;;;;;;;20.40;44.00;;;;;;6257869;28;19924;-39
2021/12/20 05:58:33;;;;;;;;;;;19.90;44.30;;;;;;6251659;28;20034;-38
2021/12/20 06:01:34;;;;;;;;;;;19.90;44.40;;;;;;6256134;28;19994;-38
2021/12/20 06:04:36;;;;;;;;;;;19.90;44.10;;;;;;6261844;28;20854;-38
2021/12/20 06:07:40;;;;;;;;;;;20.10;44.40;;;;;;6255994;28;20047;-38
2021/12/20 06:10:42;;;;;;;;;;;19.90;44.30;;;;;;6252019;28;19928;-39
2021/12/20 06:13:43;;;;;;;;;;;19.70;44.20;;;;;;6256073;28;20043;-39
2021/12/20 06:16:44;;;;;;;;;;;19.90;44.30;;;;;;6257112;28;20987;-38
2021/12/20 06:19:46;;;;;;;;;;;20.20;44.40;;;;;;6254164;28;20031;-39
2021/12/20 06:22:47;;;;;;;;;;;20.30;44.60;;;;;;6258430;28;19920;-38
2021/12/20 06:25:49;;;;;;;;;;;19.90;44.50;;;;;;6259169;28;20359;-38
2021/12/20 06:28:50;;;;;;;;;;;20.10;44.30;;;;;;6257023;28;19932;-38
2021/12/20 06:31:56;;;;;;;;;;;20.30;44.40;;;;;;6228291;28;20127;-38
2021/12/20 06:34:57;;;;;;;;;;;19.90;44.30;;;;;;6254494;28;19929;-38
2021/12/20 06:38:00;;;;;;;;;;;19.80;44.30;;;;;;6253216;28;20779;-39
2021/12/20 06:41:02;;;;;;;;;;;20.10;44.50;;;;;;6250407;28;19939;-39
2021/12/20 06:44:04;;;;;;;;;;;19.80;44.30;;;;;;6243475;28;19932;-39
2021/12/20 06:47:06;;;;;;;;;;;19.90;44.30;;;;;;6235532;28;19928;-38
2021/12/20 06:50:07;;;;;;;;;;;20.30;44.50;;;;;;6249537;28;19966;-39
2021/12/20 06:53:09;;;;;;;;;;;20.20;44.30;;;;;;6250482;28;19928;-38
2021/12/20 06:56:12;;;;;;;;;;;20.00;44.20;;;;;;6244026;28;19928;-38
2021/12/20 06:59:13;;;;;;;;;;;19.90;44.10;;;;;;6244611;28;20856;-38
2021/12/20 07:02:18;;;;;;;;;;;19.90;44.10;;;;;;6239406;28;19932;-38
2021/12/20 07:05:20;;;;;;;;;;;20.10;43.60;;;;;;6240160;28;19928;-38
2021/12/20 07:08:22;;;;;;;;;;;20.20;44.00;;;;;;6220072;28;19941;-38
2021/12/20 07:11:24;;;;;;;;;;;19.90;43.80;;;;;;6237915;28;19986;-38
2021/12/20 07:14:27;;;;;;;;;;;20.50;43.90;;;;;;6217961;28;20856;-39
2021/12/20 07:17:30;;;;;;;;;;;20.10;43.70;;;;;;6221309;28;19928;-39
2021/12/20 07:20:31;;;;;;;;;;;20.50;43.80;;;;;;6214407;28;19935;-38
2021/12/20 07:23:34;;;;;;;;;;;20.30;43.60;;;;;;6228857;28;19956;-38
2021/12/20 07:26:36;;;;;;;;;;;20.00;43.50;;;;;;6228382;28;20839;-38
2021/12/20 07:29:38;;;;;;;;;;;20.60;44.30;;;;;;6213572;28;20757;-39
2021/12/20 07:32:39;;;;;;;;;;;20.60;43.60;;;;;;6202799;28;19934;-39
2021/12/20 07:35:42;;;;;;;;;;;20.60;43.50;;;;;;6212848;28;19935;-38
2021/12/20 07:38:43;;;;;;;;;;;20.30;42.70;;;;;;6212408;28;20000;-39
2021/12/20 07:41:46;;;;;;;;;;;20.30;43.50;;;;;;6216412;28;19934;-38
2021/12/20 07:44:54;;;;;;;;;;;20.20;43.10;;;;;;6185472;28;20073;-39
2021/12/20 07:48:15;;;;;;;;;;;20.60;43.50;;;;;;6190845;28;21197;-39
2021/12/20 07:51:17;;;;;;;;;;;20.40;43.30;;;;;;6181915;28;22008;-39
2021/12/20 07:54:19;;;;;;;;;;;20.30;43.40;;;;;;6173369;28;19942;-39
2021/12/20 07:57:21;;;;;;;;;;;21.10;43.60;;;;;;6176529;28;19972;-39
2021/12/20 08:00:22;;;;;;;;;;;20.20;43.20;;;;;;6126817;28;21638;-39
2021/12/20 08:03:24;;;;;;;;;;;20.40;43.30;;;;;;6131269;28;19944;-39
2021/12/20 08:06:25;;;;;;;;;;;20.50;43.30;;;;;;6152512;28;19934;-38
2021/12/20 08:09:31;;;;;;;;;;;21.30;43.70;;;;;;6128637;28;19976;-39
2021/12/20 08:12:34;;;;;;;;;;;20.60;43.20;;;;;;6116867;28;20149;-38
2021/12/20 08:15:35;;;;;;;;;;;20.80;43.20;;;;;;6140040;28;21619;-38
2021/12/20 08:18:37;;;;;;;;;;;20.80;43.30;;;;;;6119203;28;20059;-38
2021/12/20 08:21:39;;;;;;;;;;;20.40;42.90;;;;;;6111694;28;19935;-37
2021/12/20 08:24:40;;;;;;;;;;;20.90;43.10;;;;;;6114579;28;21081;-37
2021/12/20 08:27:42;;;;;;;;;;;21.30;43.30;;;;;;6120464;28;19928;-37
2021/12/20 08:30:44;;;;;;;;;;;21.10;43.00;;;;;;6112471;28;19928;-38
2021/12/20 08:33:45;;;;;;;;;;;20.70;43.00;;;;;;6086559;28;19933;-39
2021/12/20 08:36:47;;;;;;;;;;;20.50;42.40;;;;;;6110682;28;19932;-38
2021/12/20 08:39:48;;;;;;;;;;;21.30;42.50;;;;;;6096904;28;19928;-37
2021/12/20 08:42:51;;;;;;;;;;;21.20;42.80;;;;;;6083583;28;19928;-38
2021/12/20 08:45:52;;;;;;;;;;;20.80;42.40;;;;;;6104357;28;19929;-37
2021/12/20 08:48:56;;;;;;;;;;;21.30;42.50;;;;;;6096412;28;20058;-38
2021/12/20 08:51:58;;;;;;;;;;;21.50;42.60;;;;;;6106616;28;22774;-39
2021/12/20 08:55:00;;;;;;;;;;;21.20;42.40;;;;;;6092474;28;19929;-39
2021/12/20 08:58:02;;;;;;;;;;;21.10;42.20;;;;;;6096308;28;20231;-38
2021/12/20 09:01:03;;;;;;;;;;;21.30;42.20;;;;;;6047337;28;19940;-38
2021/12/20 09:04:06;;;;;;;;;;;21.20;42.00;;;;;;6077606;28;21944;-39
2021/12/20 09:07:15;;;;;;;;;;;21.30;42.00;;;;;;6085751;28;19928;-39
2021/12/20 09:10:16;;;;;;;;;;;21.20;42.00;;;;;;6092265;28;20239;-40
2021/12/20 09:13:19;;;;;;;;;;;21.40;41.80;;;;;;6105902;28;19929;-37
2021/12/20 09:16:20;;;;;;;;;;;21.10;41.40;;;;;;6065229;28;21759;-38
2021/12/20 09:19:21;;;;;;;;;;;21.40;42.00;;;;;;6118844;28;19934;-39
2021/12/20 09:22:27;;;;;;;;;;;21.30;41.90;;;;;;6112409;28;19934;-39
2021/12/20 09:25:28;;;;;;;;;;;21.40;41.80;;;;;;6104035;28;19928;-38
2021/12/20 09:28:30;;;;;;;;;;;21.90;42.10;;;;;;6115564;28;21797;-37
2021/12/20 09:31:32;;;;;;;;;;;21.70;41.80;;;;;;6118347;28;19928;-38
2021/12/20 09:34:33;;;;;;;;;;;22.00;41.40;;;;;;6118709;28;19935;-38
2021/12/20 09:37:35;;;;;;;;;;;21.80;41.80;;;;;;6120347;28;19943;-42
2021/12/20 09:40:39;;;;;;;;;;;22.40;42.20;;;;;;6130008;28;20072;-40
2021/12/20 09:43:43;;;;;;;;;;;21.70;41.60;;;;;;6118817;28;19936;-39
2021/12/20 09:46:44;;;;;;;;;;;21.50;41.50;;;;;;6098370;28;22816;-42
2021/12/20 09:49:47;;;;;;;;;;;21.60;41.40;;;;;;6111566;28;19935;-43
2021/12/20 09:52:48;;;;;;;;;;;21.50;41.60;;;;;;6107242;28;19928;-40
2021/12/20 09:55:50;;;;;;;;;;;21.90;41.60;;;;;;6116640;28;20033;-39
2021/12/20 09:58:54;;;;;;;;;;;22.30;42.00;;;;;;6094901;28;19929;-40
2021/12/20 10:01:56;;;;;;;;;;;22.00;41.70;;;;;;6079274;28;19936;-40
2021/12/20 10:04:57;;;;;;;;;;;21.60;41.70;;;;;;6065677;28;19982;-40
2021/12/20 10:08:08;;;;;;;;;;;21.80;41.10;;;;;;6055821;28;19932;-41
2021/12/20 10:11:17;;;;;;;;;;;21.90;41.00;;;;;;6104554;28;19934;-42
2021/12/20 10:14:20;;;;;;;;;;;21.70;41.40;;;;;;6097005;28;19936;-41
2021/12/20 10:17:22;;;;;;;;;;;21.90;41.50;;;;;;6101449;28;19935;-40
2021/12/20 10:20:26;;;;;;;;;;;21.80;41.30;;;;;;6076627;28;19932;-41
2021/12/20 10:23:29;;;;;;;;;;;22.30;41.70;;;;;;6096703;28;20060;-42
2021/12/20 10:26:37;;;;;;;;;;;21.90;41.50;;;;;;6098459;28;21274;-40
2021/12/20 10:29:39;;;;;;;;;;;22.20;41.70;;;;;;6084797;28;19936;-43
2021/12/20 10:32:41;;;;;;;;;;;21.80;41.10;;;;;;6083169;28;20172;-40
2021/12/20 10:35:43;;;;;;;;;;;22.00;41.40;;;;;;6068389;28;19929;-42
2021/12/20 10:38:46;;;;;;;;;;;21.60;41.10;;;;;;6108058;28;20157;-40
2021/12/20 10:41:51;;;;;;;;;;;21.80;41.20;;;;;;6111662;28;19935;-41
2021/12/20 10:45:08;;;;;;;;;;;21.80;41.30;;;;;;6085955;28;19928;-40
2021/12/20 10:48:11;;;;;;;;;;;22.50;41.60;;;;;;6110790;28;19928;-41
2021/12/20 10:51:16;;;;;;;;;;;21.90;41.30;;;;;;6083450;28;19928;-40
2021/12/20 10:54:21;;;;;;;;;;;22.10;41.30;;;;;;6087370;28;19928;-41
2021/12/20 10:57:26;;;;;;;;;;;22.20;41.40;;;;;;6115318;28;19943;-42
2021/12/20 11:00:27;;;;;;;;;;;21.90;41.20;;;;;;6080755;28;20081;-41
2021/12/20 11:03:35;;;;;;;;;;;22.40;41.40;;;;;;6108099;28;20323;-42
2021/12/20 11:06:56;;;;;;;;;;;22.40;40.80;;;;;;6112232;28;19929;-40
2021/12/20 11:09:59;;;;;;;;;;;22.20;41.30;;;;;;6106070;28;19937;-40
2021/12/20 11:13:01;;;;;;;;;;;22.30;41.30;;;;;;6128907;28;19963;-40
2021/12/20 11:16:17;;;;;;;;;;;22.30;41.30;;;;;;6130300;28;19928;-40
2021/12/20 11:19:22;;;;;;;;;;;21.90;40.80;;;;;;6101811;28;19936;-42
2021/12/20 11:22:24;;;;;;;;;;;22.30;41.20;;;;;;6128321;28;21235;-40
2021/12/20 11:25:25;;;;;;;;;;;22.00;41.00;;;;;;6164692;28;20911;-41
2021/12/20 11:28:26;;;;;;;;;;;22.40;41.40;;;;;;6158907;28;19929;-40
2021/12/20 11:31:28;;;;;;;;;;;22.70;41.70;;;;;;6142291;28;19928;-40
2021/12/20 11:34:30;;;;;;;;;;;22.40;41.50;;;;;;6155436;28;22508;-40
2021/12/20 11:37:31;;;;;;;;;;;22.00;41.30;;;;;;6177233;28;19928;-40
2021/12/20 11:40:33;;;;;;;;;;;21.70;40.50;;;;;;6173025;28;19935;-41
2021/12/20 11:43:34;;;;;;;;;;;22.50;41.60;;;;;;6181265;28;19936;-40
2021/12/20 11:46:40;;;;;;;;;;;22.20;41.50;;;;;;6184075;28;19931;-40
2021/12/20 11:49:42;;;;;;;;;;;21.80;41.00;;;;;;6157143;28;19936;-40
2021/12/20 11:52:45;;;;;;;;;;;21.80;41.20;;;;;;6159659;28;21507;-40
2021/12/20 11:55:47;;;;;;;;;;;22.00;41.30;;;;;;6170747;28;20013;-40
2021/12/20 11:58:48;;;;;;;;;;;22.20;41.40;;;;;;6168389;28;20011;-39
2021/12/20 12:02:13;;;;;;;;;;;22.00;41.40;;;;;;6169066;28;19929;-40
2021/12/20 12:05:17;;;;;;;;;;;22.20;41.40;;;;;;6173962;28;19932;-39
2021/12/20 12:08:21;;;;;;;;;;;21.90;41.50;;;;;;6181142;28;19981;-40
2021/12/20 12:11:31;;;;;;;;;;;22.00;41.30;;;;;;6177013;28;19954;-41
2021/12/20 12:14:55;;;;;;;;;;;22.70;41.70;;;;;;6167117;28;20039;-40
2021/12/20 12:17:58;;;;;;;;;;;21.70;41.10;;;;;;6143476;28;21799;-40
2021/12/20 12:21:01;;;;;;;;;;;21.80;41.30;;;;;;6179614;28;20935;-43
2021/12/20 12:24:03;;;;;;;;;;;22.30;41.50;;;;;;6182448;28;21510;-39
2021/12/20 12:27:18;;;;;;;;;;;21.80;41.20;;;;;;6172717;28;20035;-42
2021/12/20 12:30:28;;;;;;;;;;;22.20;41.30;;;;;;6162376;28;19932;-40
2021/12/20 12:33:34;;;;;;;;;;;21.80;41.20;;;;;;6160803;28;20123;-40
2021/12/20 12:36:40;;;;;;;;;;;22.30;41.40;;;;;;6171723;28;19929;-40
2021/12/20 12:39:41;;;;;;;;;;;22.20;39.30;;;;;;6175379;28;21303;-41
2021/12/20 12:42:45;;;;;;;;;;;22.10;41.40;;;;;;6179776;28;19928;-41
2021/12/20 12:45:59;;;;;;;;;;;21.90;41.20;;;;;;6172130;28;20038;-41
2021/12/20 12:49:00;;;;;;;;;;;22.10;41.30;;;;;;6167092;28;19935;-40
2021/12/20 12:52:05;;;;;;;;;;;21.90;41.20;;;;;;6132452;28;27703;-40
2021/12/20 12:55:28;;;;;;;;;;;22.50;41.50;;;;;;6128129;28;20021;-40
2021/12/20 12:58:29;;;;;;;;;;;21.90;41.20;;;;;;6118350;28;20006;-40
2021/12/20 13:01:31;;;;;;;;;;;22.00;41.30;;;;;;6113873;28;21335;-39
2021/12/20 13:04:42;;;;;;;;;;;21.80;41.40;;;;;;6115707;28;20784;-39
2021/12/20 13:07:46;;;;;;;;;;;22.30;41.50;;;;;;6109549;28;19928;-39
2021/12/20 13:10:51;;;;;;;;;;;22.80;41.80;;;;;;6100843;28;20017;-38
2021/12/20 13:14:06;;;;;;;;;;;22.60;41.10;;;;;;6113852;28;20043;-40
2021/12/20 13:17:07;;;;;;;;;;;22.60;41.20;;;;;;6114445;28;19935;-40
2021/12/20 13:20:18;;;;;;;;;;;22.40;41.40;;;;;;6088730;28;20077;-40
2021/12/20 13:23:21;;;;;;;;;;;22.90;41.30;;;;;;6090789;28;19990;-40
2021/12/20 13:26:22;;;;;;;;;;;22.00;40.80;;;;;;6083732;28;20071;-40
2021/12/20 13:29:23;;;;;;;;;;;22.10;40.70;;;;;;6106587;28;21028;-39
2021/12/20 13:32:25;;;;;;;;;;;22.90;41.40;;;;;;6075742;28;19928;-42
2021/12/20 13:35:27;;;;;;;;;;;22.50;41.00;;;;;;6097607;28;19970;-41
2021/12/20 13:38:30;;;;;;;;;;;22.20;40.80;;;;;;6119097;28;22088;-41
2021/12/20 13:41:33;;;;;;;;;;;22.70;40.40;;;;;;6103992;28;19936;-41
2021/12/20 13:44:35;;;;;;;;;;;22.20;40.80;;;;;;6103085;28;19928;-39
2021/12/20 13:47:40;;;;;;;;;;;22.80;41.10;;;;;;6099654;28;19929;-43
2021/12/20 13:50:41;;;;;;;;;;;22.00;40.60;;;;;;6104309;28;21200;-40
2021/12/20 13:53:43;;;;;;;;;;;22.70;40.90;;;;;;6111434;28;19928;-40
2021/12/20 13:56:49;;;;;;;;;;;22.60;40.80;;;;;;6107368;28;19928;-40
2021/12/20 13:59:52;;;;;;;;;;;23.90;43.60;;;;;;6059423;28;22581;-40
2021/12/20 14:02:53;;;;;;;;;;;22.60;42.80;;;;;;6064079;28;19933;-41
2021/12/20 14:05:55;;;;;;;;;;;22.60;43.40;;;;;;6075429;28;21932;-41
2021/12/20 14:09:07;;;;;;;;;;;22.40;42.90;;;;;;6092873;28;21219;-42
2021/12/20 14:12:10;;;;;;;;;;;22.40;42.70;;;;;;6089377;28;19928;-40
2021/12/20 14:15:13;;;;;;;;;;;22.70;42.80;;;;;;6056083;28;27800;-41
2021/12/20 14:18:15;;;;;;;;;;;22.70;42.30;;;;;;6073594;28;19935;-40
2021/12/20 14:21:24;;;;;;;;;;;22.50;42.80;;;;;;6072529;28;20009;-41
2021/12/20 14:24:37;;;;;;;;;;;22.60;42.70;;;;;;6065679;28;19928;-40
2021/12/20 14:27:38;;;;;;;;;;;22.50;43.10;;;;;;6105448;28;20010;-41
2021/12/20 14:30:44;;;;;;;;;;;22.30;42.80;;;;;;6068120;28;19978;-42
2021/12/20 14:33:48;;;;;;;;;;;22.40;42.70;;;;;;6080088;28;20792;-41
2021/12/20 14:36:50;;;;;;;;;;;22.80;42.70;;;;;;6035951;28;19928;-41
2021/12/20 14:39:52;;;;;;;;;;;22.70;42.70;;;;;;6069405;28;19935;-40
2021/12/20 14:43:11;;;;;;;;;;;22.50;42.50;;;;;;6099755;28;20129;-41
2021/12/20 14:46:18;;;;;;;;;;;22.60;42.50;;;;;;6093149;28;19934;-41
2021/12/20 14:49:22;;;;;;;;;;;23.00;42.10;;;;;;6077556;28;20014;-40
2021/12/20 14:52:26;;;;;;;;;;;22.80;42.60;;;;;;6095516;28;23121;-41
2021/12/20 14:55:33;;;;;;;;;;;22.30;42.30;;;;;;6088822;28;19928;-40
2021/12/20 14:58:34;;;;;;;;;;;22.40;42.40;;;;;;6085626;28;19929;-40
2021/12/20 15:01:36;;;;;;;;;;;22.90;42.60;;;;;;6095072;28;22065;-39
2021/12/20 15:04:40;;;;;;;;;;;22.70;42.50;;;;;;6074181;28;19934;-39
2021/12/20 15:07:42;;;;;;;;;;;22.50;42.40;;;;;;6073518;28;21442;-40
2021/12/20 15:10:44;;;;;;;;;;;23.20;42.60;;;;;;6077333;28;20024;-40
2021/12/20 15:13:45;;;;;;;;;;;23.40;42.70;;;;;;6086561;28;19928;-41
2021/12/20 15:16:50;;;;;;;;;;;23.30;42.10;;;;;;6089525;28;21988;-41
2021/12/20 15:20:52;;;;;;;1.23;1.00;;;22.80;39.40;;;;;;6226130;27;20483;-46
2021/12/20 15:23:54;;;;;;;0.70;0.70;;;22.80;37.50;;;;;;6192913;27;22277;-43
2021/12/20 15:26:56;;;;;;;3.03;0.90;;;22.70;36.60;;;;;;6194182;27;20049;-45
2021/12/20 15:29:58;;;;;;;2.13;0.60;;;22.80;36.10;;;;;;6166703;27;20681;-38
2021/12/20 15:33:00;;;;;;;3.22;1.13;;;22.80;35.70;;;;;;6168301;27;20038;-39
2021/12/20 15:36:03;;;;;;;1.30;1.00;;;22.60;35.30;;;;;;6175665;27;20046;-38
2021/12/20 15:39:07;;;;;;;0.85;0.77;;;22.80;35.30;;;;;;6177871;27;20057;-38
2021/12/20 15:42:16;;;;;;;4.18;1.67;;;22.80;35.30;;;;;;6163304;27;20035;-39
2021/12/20 15:45:18;;;;;;;1.77;0.90;;;22.80;35.20;;;;;;6174861;27;20050;-38
2021/12/20 15:48:22;;;;;;;1.02;0.90;;;22.60;35.00;;;;;;6203645;27;20041;-38
2021/12/20 15:51:25;;;;;;;2.30;1.02;;;22.70;35.00;;;;;;6165406;27;20091;-39
2021/12/20 15:54:27;;;;;;;1.13;1.00;;;22.70;35.00;;;;;;6155488;27;20043;-38
2021/12/20 15:57:28;;;;;;;1.20;1.10;;;22.80;34.90;;;;;;6175777;27;20046;-38
2021/12/20 16:00:30;;;;;;;1.23;1.00;;;22.90;35.10;;;;;;6160280;27;20050;-38
2021/12/20 16:03:32;;;;;;;1.20;0.90;;;22.90;34.90;;;;;;6176489;27;20042;-37
2021/12/20 16:06:34;;;;;;;1.50;1.13;;;22.80;34.90;;;;;;6166494;27;22110;-38
2021/12/20 16:09:36;;;;;;;1.05;0.80;;;22.80;34.90;;;;;;6192954;27;20039;-41
2021/12/20 16:12:37;;;;;;;;;;;22.60;34.70;;;;;;6162798;27;20050;-39
2021/12/20 16:15:39;;;;;;;;;;;23.00;34.90;;;;;;6201890;27;19927;-41
2021/12/20 16:18:40;;;;;;;;;;;22.80;34.90;;;;;;6199768;27;19934;-40
2021/12/20 16:21:43;;;;;;;2.63;1.15;;;22.90;35.50;;;;;;6184462;27;22460;-40
2021/12/20 16:24:46;;;;;;;1.20;0.90;;;22.90;35.00;;;;;;6179748;27;21000;-40
2021/12/20 16:27:50;;;;;;;1.17;0.90;;;22.80;34.90;;;;;;6203149;27;20115;-39
2021/12/20 16:30:54;;;;;;;2.00;1.02;;;22.90;35.00;;;;;;6147132;27;20045;-40
2021/12/20 16:33:56;;;;;;;2.45;1.10;;;22.80;34.90;;;;;;6174441;27;20057;-39
2021/12/20 16:36:58;;;;;;;1.80;1.13;;;22.70;34.90;;;;;;6174092;27;20043;-39
2021/12/20 16:39:59;;;;;;;1.60;1.10;;;22.80;34.90;;;;;;6208091;27;20043;-39
2021/12/20 16:43:01;;;;;;;6.38;1.23;;;22.80;34.90;;;;;;6166894;27;20092;-41
2021/12/20 16:46:09;;;;;;;1.73;1.10;;;22.80;34.90;;;;;;6156967;27;20051;-39
2021/12/20 16:49:31;;;;;;;1.30;1.13;;;22.60;34.70;;;;;;6204584;27;20053;-41
2021/12/20 16:52:44;;;;;;;1.88;1.10;;;23.00;34.80;;;;;;6209179;27;20218;-40
2021/12/20 16:55:49;;;;;;;1.45;1.20;;;22.90;34.70;;;;;;6230135;27;21208;-41
2021/12/20 16:58:50;;;;;;;1.20;1.00;;;22.80;34.60;;;;;;6212000;27;22143;-40
2021/12/20 17:01:53;;;;;;;;;;;22.90;34.60;;;;;;6232002;27;20706;-40
2021/12/20 17:05:06;;;;;;;1.60;1.10;;;22.70;34.50;;;;;;6224201;27;19951;-40
2021/12/20 17:08:08;;;;;;;1.13;1.02;;;22.90;34.60;;;;;;6240426;27;21339;-41
2021/12/20 17:11:10;;;;;;;2.03;1.17;;;22.80;34.50;;;;;;6241865;27;20039;-41
2021/12/20 17:14:12;;;;;;;1.20;1.08;;;22.80;34.40;;;;;;6240970;27;20115;-41
2021/12/20 17:17:14;;;;;;;1.00;0.90;;;22.70;34.30;;;;;;6244870;27;20173;-41
2021/12/20 17:20:16;;;;;;;1.35;0.90;;;22.80;34.30;;;;;;6256807;27;20051;-40
2021/12/20 17:23:19;;;;;;;1.17;0.90;;;22.80;34.20;;;;;;6251238;27;20057;-40
2021/12/20 17:26:21;;;;;;;2.25;0.90;;;22.90;34.20;;;;;;6273986;27;20055;-42
2021/12/20 17:29:23;;;;;;;1.23;1.08;;;23.10;34.30;;;;;;6257998;27;20073;-41
2021/12/20 17:32:24;;;;;;;1.10;1.00;;;22.70;34.20;;;;;;6260358;27;20077;-40
2021/12/20 17:35:29;;;;;;;1.20;0.93;;;22.60;34.00;;;;;;6263961;27;20151;-41
2021/12/20 17:38:31;;;;;;;1.27;1.17;;;22.50;33.90;;;;;;6245270;27;20093;-39
2021/12/20 17:41:34;;;;;;;1.23;0.98;;;22.60;34.00;;;;;;6260661;27;20124;-40
2021/12/20 17:44:36;;;;;;;1.80;0.90;;;22.60;34.00;;;;;;6255268;27;20042;-42